sensor_id;sensor_type;location;lat;lon;timestamp;temperature;humidity
21895;DHT22;11112;51.270;7.224;2023-05-10T00:01:10;16.60;99.90
21895;DHT22;11112;51.270;7.224;2023-05-10T00:03:41;16.60;99.90
21895;DHT22;11112;51.270;7.224;2023-05-10T00:06:09;16.60;99.90
21895;DHT22;11112;51.270;7.224;2023-05-10T00:08:42;16.60;99.90
21895;DHT22;11112;51.270;7.224;2023-05-10T00:11:12;16.60;99.90
21895;DHT22;11112;51.270;7.224;2023-05-10T00:13:39;16.60;99.90
21895;DHT22;11112;51.270;7.224;2023-05-10T00:16:06;16.60;99.90
21895;DHT22;11112;51.270;7.224;2023-05-10T00:18:34;16.60;99.90
21895;DHT22;11112;51.270;7.224;2023-05-10T00:21:04;16.60;99.90
21895;DHT22;11112;51.270;7.224;2023-05-10T00:23:32;16.60;99.90
21895;DHT22;11112;51.270;7.224;2023-05-10T00:26:00;16.60;99.90
21895;DHT22;11112;51.270;7.224;2023-05-10T00:28:27;16.60;99.90
21895;DHT22;11112;51.270;7.224;2023-05-10T00:30:55;16.60;99.90
21895;DHT22;11112;51.270;7.224;2023-05-10T00:33:23;16.60;99.90
21895;DHT22;11112;51.270;7.224;2023-05-10T00:35:50;16.60;99.90
21895;DHT22;11112;51.270;7.224;2023-05-10T00:38:19;16.60;99.90
21895;DHT22;11112;51.270;7.224;2023-05-10T00:40:46;16.60;99.90
21895;DHT22;11112;51.270;7.224;2023-05-10T00:43:14;16.60;99.90
21895;DHT22;11112;51.270;7.224;2023-05-10T00:45:42;16.60;99.90
21895;DHT22;11112;51.270;7.224;2023-05-10T00:48:10;16.60;99.90
21895;DHT22;11112;51.270;7.224;2023-05-10T00:50:37;16.60;99.90
21895;DHT22;11112;51.270;7.224;2023-05-10T00:53:06;16.60;99.90
21895;DHT22;11112;51.270;7.224;2023-05-10T00:55:37;16.60;99.90
21895;DHT22;11112;51.270;7.224;2023-05-10T00:58:05;16.50;99.90
21895;DHT22;11112;51.270;7.224;2023-05-10T01:00:34;16.50;99.90
21895;DHT22;11112;51.270;7.224;2023-05-10T01:03:03;16.50;99.90
21895;DHT22;11112;51.270;7.224;2023-05-10T01:05:30;16.50;99.90
21895;DHT22;11112;51.270;7.224;2023-05-10T01:07:57;16.50;99.90
21895;DHT22;11112;51.270;7.224;2023-05-10T01:10:26;16.50;99.90
21895;DHT22;11112;51.270;7.224;2023-05-10T01:12:55;16.50;99.90
21895;DHT22;11112;51.270;7.224;2023-05-10T01:15:23;16.50;99.90
21895;DHT22;11112;51.270;7.224;2023-05-10T01:17:51;16.50;99.90
21895;DHT22;11112;51.270;7.224;2023-05-10T01:20:19;16.50;99.90
21895;DHT22;11112;51.270;7.224;2023-05-10T01:23:10;16.50;99.90
21895;DHT22;11112;51.270;7.224;2023-05-10T01:26:06;16.50;99.90
21895;DHT22;11112;51.270;7.224;2023-05-10T01:34:59;16.50;99.90
21895;DHT22;11112;51.270;7.224;2023-05-10T01:37:33;16.50;99.90
21895;DHT22;11112;51.270;7.224;2023-05-10T01:40:17;16.50;99.90
21895;DHT22;11112;51.270;7.224;2023-05-10T01:42:51;16.50;99.90
21895;DHT22;11112;51.270;7.224;2023-05-10T01:45:27;16.50;99.90
21895;DHT22;11112;51.270;7.224;2023-05-10T01:48:05;16.50;99.90
21895;DHT22;11112;51.270;7.224;2023-05-10T01:50:36;16.50;99.90
21895;DHT22;11112;51.270;7.224;2023-05-10T01:53:08;16.50;99.90
21895;DHT22;11112;51.270;7.224;2023-05-10T01:55:42;16.50;99.90
21895;DHT22;11112;51.270;7.224;2023-05-10T01:58:17;16.50;99.90
21895;DHT22;11112;51.270;7.224;2023-05-10T02:00:49;16.50;99.90
21895;DHT22;11112;51.270;7.224;2023-05-10T02:03:23;16.50;99.90
21895;DHT22;11112;51.270;7.224;2023-05-10T02:05:52;16.50;99.90
21895;DHT22;11112;51.270;7.224;2023-05-10T02:08:21;16.50;99.90
21895;DHT22;11112;51.270;7.224;2023-05-10T02:10:50;16.50;99.90
21895;DHT22;11112;51.270;7.224;2023-05-10T02:13:19;16.50;99.90
21895;DHT22;11112;51.270;7.224;2023-05-10T02:15:48;16.50;99.90
21895;DHT22;11112;51.270;7.224;2023-05-10T02:18:17;16.50;99.90
21895;DHT22;11112;51.270;7.224;2023-05-10T02:20:47;16.50;99.90
21895;DHT22;11112;51.270;7.224;2023-05-10T02:23:16;16.50;99.90
21895;DHT22;11112;51.270;7.224;2023-05-10T02:25:45;16.50;99.90
21895;DHT22;11112;51.270;7.224;2023-05-10T02:28:14;16.50;99.90
21895;DHT22;11112;51.270;7.224;2023-05-10T02:30:42;16.50;99.90
21895;DHT22;11112;51.270;7.224;2023-05-10T02:33:11;16.50;99.90
21895;DHT22;11112;51.270;7.224;2023-05-10T02:35:39;16.50;99.90
21895;DHT22;11112;51.270;7.224;2023-05-10T02:38:08;16.50;99.90
21895;DHT22;11112;51.270;7.224;2023-05-10T02:40:38;16.50;99.90
21895;DHT22;11112;51.270;7.224;2023-05-10T02:43:12;16.50;99.90
21895;DHT22;11112;51.270;7.224;2023-05-10T02:45:42;16.50;99.90
21895;DHT22;11112;51.270;7.224;2023-05-10T02:48:10;16.50;99.90
21895;DHT22;11112;51.270;7.224;2023-05-10T02:50:38;16.40;99.90
21895;DHT22;11112;51.270;7.224;2023-05-10T02:53:15;16.40;99.90
21895;DHT22;11112;51.270;7.224;2023-05-10T02:55:50;16.50;99.90
21895;DHT22;11112;51.270;7.224;2023-05-10T02:58:19;16.50;99.90
21895;DHT22;11112;51.270;7.224;2023-05-10T03:00:46;16.40;99.90
21895;DHT22;11112;51.270;7.224;2023-05-10T03:03:13;16.40;99.90
21895;DHT22;11112;51.270;7.224;2023-05-10T03:05:42;16.40;99.90
21895;DHT22;11112;51.270;7.224;2023-05-10T03:08:11;16.40;99.90
21895;DHT22;11112;51.270;7.224;2023-05-10T03:10:44;16.50;99.90
21895;DHT22;11112;51.270;7.224;2023-05-10T03:13:33;16.40;99.90
21895;DHT22;11112;51.270;7.224;2023-05-10T03:16:08;16.40;99.90
21895;DHT22;11112;51.270;7.224;2023-05-10T03:18:44;16.40;99.90
21895;DHT22;11112;51.270;7.224;2023-05-10T03:21:18;16.40;99.90
21895;DHT22;11112;51.270;7.224;2023-05-10T03:23:51;16.40;99.90
21895;DHT22;11112;51.270;7.224;2023-05-10T03:26:26;16.40;99.90
21895;DHT22;11112;51.270;7.224;2023-05-10T03:28:55;16.40;99.90
21895;DHT22;11112;51.270;7.224;2023-05-10T03:31:24;16.40;99.90
21895;DHT22;11112;51.270;7.224;2023-05-10T03:33:53;16.40;99.90
21895;DHT22;11112;51.270;7.224;2023-05-10T03:36:21;16.40;99.90
21895;DHT22;11112;51.270;7.224;2023-05-10T03:38:50;16.40;99.90
21895;DHT22;11112;51.270;7.224;2023-05-10T03:41:19;16.40;99.90
21895;DHT22;11112;51.270;7.224;2023-05-10T03:43:47;16.30;99.90
21895;DHT22;11112;51.270;7.224;2023-05-10T03:46:14;16.30;99.90
21895;DHT22;11112;51.270;7.224;2023-05-10T03:48:42;16.30;99.90
21895;DHT22;11112;51.270;7.224;2023-05-10T03:51:09;16.30;99.90
21895;DHT22;11112;51.270;7.224;2023-05-10T03:53:37;16.30;99.90
21895;DHT22;11112;51.270;7.224;2023-05-10T03:56:06;16.30;99.90
21895;DHT22;11112;51.270;7.224;2023-05-10T03:58:33;16.30;99.90
21895;DHT22;11112;51.270;7.224;2023-05-10T04:01:01;16.30;99.90
21895;DHT22;11112;51.270;7.224;2023-05-10T04:03:28;16.30;99.90
21895;DHT22;11112;51.270;7.224;2023-05-10T04:05:59;16.30;99.90
21895;DHT22;11112;51.270;7.224;2023-05-10T04:08:27;16.30;99.90
21895;DHT22;11112;51.270;7.224;2023-05-10T04:10:54;16.40;99.90
21895;DHT22;11112;51.270;7.224;2023-05-10T04:13:22;16.40;99.90
21895;DHT22;11112;51.270;7.224;2023-05-10T04:15:50;16.40;99.90
21895;DHT22;11112;51.270;7.224;2023-05-10T04:18:17;16.40;99.90
21895;DHT22;11112;51.270;7.224;2023-05-10T04:20:44;16.30;99.90
21895;DHT22;11112;51.270;7.224;2023-05-10T04:23:11;16.40;99.90
21895;DHT22;11112;51.270;7.224;2023-05-10T04:25:42;16.30;99.90
21895;DHT22;11112;51.270;7.224;2023-05-10T04:28:09;16.30;99.90
21895;DHT22;11112;51.270;7.224;2023-05-10T04:30:37;16.30;99.90
21895;DHT22;11112;51.270;7.224;2023-05-10T04:33:06;16.30;99.90
21895;DHT22;11112;51.270;7.224;2023-05-10T04:35:33;16.30;99.90
21895;DHT22;11112;51.270;7.224;2023-05-10T04:38:01;16.30;99.90
21895;DHT22;11112;51.270;7.224;2023-05-10T04:40:28;16.30;99.90
21895;DHT22;11112;51.270;7.224;2023-05-10T04:42:55;16.30;99.90
21895;DHT22;11112;51.270;7.224;2023-05-10T04:45:22;16.30;99.90
21895;DHT22;11112;51.270;7.224;2023-05-10T04:47:50;16.30;99.90
21895;DHT22;11112;51.270;7.224;2023-05-10T04:50:18;16.30;99.90
21895;DHT22;11112;51.270;7.224;2023-05-10T04:52:45;16.30;99.90
21895;DHT22;11112;51.270;7.224;2023-05-10T04:55:12;16.30;99.90
21895;DHT22;11112;51.270;7.224;2023-05-10T04:57:39;16.30;99.90
21895;DHT22;11112;51.270;7.224;2023-05-10T05:00:07;16.30;99.90
21895;DHT22;11112;51.270;7.224;2023-05-10T05:02:35;16.30;99.90
21895;DHT22;11112;51.270;7.224;2023-05-10T05:05:05;16.30;99.90
21895;DHT22;11112;51.270;7.224;2023-05-10T05:07:33;16.30;99.90
21895;DHT22;11112;51.270;7.224;2023-05-10T05:10:00;16.30;99.90
21895;DHT22;11112;51.270;7.224;2023-05-10T05:12:27;16.30;99.90
21895;DHT22;11112;51.270;7.224;2023-05-10T05:14:54;16.30;99.90
21895;DHT22;11112;51.270;7.224;2023-05-10T05:17:21;16.30;99.90
21895;DHT22;11112;51.270;7.224;2023-05-10T05:19:48;16.30;99.90
21895;DHT22;11112;51.270;7.224;2023-05-10T05:22:17;16.30;99.90
21895;DHT22;11112;51.270;7.224;2023-05-10T05:24:45;16.30;99.90
21895;DHT22;11112;51.270;7.224;2023-05-10T05:27:12;16.30;99.90
21895;DHT22;11112;51.270;7.224;2023-05-10T05:29:39;16.30;99.90
21895;DHT22;11112;51.270;7.224;2023-05-10T05:32:06;16.30;99.90
21895;DHT22;11112;51.270;7.224;2023-05-10T05:34:34;16.30;99.90
21895;DHT22;11112;51.270;7.224;2023-05-10T05:37:01;16.30;99.90
21895;DHT22;11112;51.270;7.224;2023-05-10T05:39:30;16.30;99.90
21895;DHT22;11112;51.270;7.224;2023-05-10T05:41:57;16.30;99.90
21895;DHT22;11112;51.270;7.224;2023-05-10T05:44:24;16.30;99.90
21895;DHT22;11112;51.270;7.224;2023-05-10T05:46:54;16.30;99.90
21895;DHT22;11112;51.270;7.224;2023-05-10T05:49:21;16.30;99.90
21895;DHT22;11112;51.270;7.224;2023-05-10T05:51:48;16.30;99.90
21895;DHT22;11112;51.270;7.224;2023-05-10T05:54:15;16.30;99.90
21895;DHT22;11112;51.270;7.224;2023-05-10T05:56:44;16.30;99.90
21895;DHT22;11112;51.270;7.224;2023-05-10T05:59:11;16.30;99.90
21895;DHT22;11112;51.270;7.224;2023-05-10T06:01:38;16.30;99.90
21895;DHT22;11112;51.270;7.224;2023-05-10T06:04:06;16.30;99.90
21895;DHT22;11112;51.270;7.224;2023-05-10T06:06:33;16.30;99.90
21895;DHT22;11112;51.270;7.224;2023-05-10T06:09:00;16.30;99.90
21895;DHT22;11112;51.270;7.224;2023-05-10T06:11:27;16.30;99.90
21895;DHT22;11112;51.270;7.224;2023-05-10T06:13:56;16.30;99.90
21895;DHT22;11112;51.270;7.224;2023-05-10T06:16:23;16.30;99.90
21895;DHT22;11112;51.270;7.224;2023-05-10T06:18:50;16.30;99.90
21895;DHT22;11112;51.270;7.224;2023-05-10T06:21:17;16.40;99.90
21895;DHT22;11112;51.270;7.224;2023-05-10T06:23:44;16.30;99.90
21895;DHT22;11112;51.270;7.224;2023-05-10T06:26:12;16.40;99.90
21895;DHT22;11112;51.270;7.224;2023-05-10T06:28:40;16.40;99.90
21895;DHT22;11112;51.270;7.224;2023-05-10T06:31:08;16.50;99.90
21895;DHT22;11112;51.270;7.224;2023-05-10T06:33:37;16.40;99.90
21895;DHT22;11112;51.270;7.224;2023-05-10T06:36:04;16.50;99.90
21895;DHT22;11112;51.270;7.224;2023-05-10T06:38:32;16.50;99.90
21895;DHT22;11112;51.270;7.224;2023-05-10T06:40:59;16.50;99.90
21895;DHT22;11112;51.270;7.224;2023-05-10T06:43:26;16.50;99.90
21895;DHT22;11112;51.270;7.224;2023-05-10T06:45:54;16.50;99.90
21895;DHT22;11112;51.270;7.224;2023-05-10T06:48:22;16.50;99.90
21895;DHT22;11112;51.270;7.224;2023-05-10T06:50:49;16.50;99.90
21895;DHT22;11112;51.270;7.224;2023-05-10T06:53:17;16.50;99.90
21895;DHT22;11112;51.270;7.224;2023-05-10T06:55:44;16.50;99.90
21895;DHT22;11112;51.270;7.224;2023-05-10T06:58:11;16.50;99.90
21895;DHT22;11112;51.270;7.224;2023-05-10T07:00:39;16.50;99.90
21895;DHT22;11112;51.270;7.224;2023-05-10T07:03:09;16.50;99.90
21895;DHT22;11112;51.270;7.224;2023-05-10T07:05:37;16.40;99.90
21895;DHT22;11112;51.270;7.224;2023-05-10T07:08:05;16.40;99.90
21895;DHT22;11112;51.270;7.224;2023-05-10T07:10:32;16.40;99.90
21895;DHT22;11112;51.270;7.224;2023-05-10T07:13:00;16.40;99.90
21895;DHT22;11112;51.270;7.224;2023-05-10T07:15:27;16.40;99.90
21895;DHT22;11112;51.270;7.224;2023-05-10T07:17:54;16.50;99.90
21895;DHT22;11112;51.270;7.224;2023-05-10T07:20:21;16.50;99.90
21895;DHT22;11112;51.270;7.224;2023-05-10T07:22:50;16.50;99.90
21895;DHT22;11112;51.270;7.224;2023-05-10T07:25:17;16.40;99.90
21895;DHT22;11112;51.270;7.224;2023-05-10T07:27:44;16.40;99.90
21895;DHT22;11112;51.270;7.224;2023-05-10T07:30:14;16.30;99.90
21895;DHT22;11112;51.270;7.224;2023-05-10T07:32:41;16.30;99.90
21895;DHT22;11112;51.270;7.224;2023-05-10T07:35:09;16.30;99.90
21895;DHT22;11112;51.270;7.224;2023-05-10T07:37:36;16.30;99.90
21895;DHT22;11112;51.270;7.224;2023-05-10T07:40:06;16.40;99.90
21895;DHT22;11112;51.270;7.224;2023-05-10T07:42:34;16.40;99.90
21895;DHT22;11112;51.270;7.224;2023-05-10T07:45:01;16.40;99.90
21895;DHT22;11112;51.270;7.224;2023-05-10T07:47:28;16.40;99.90
21895;DHT22;11112;51.270;7.224;2023-05-10T07:49:55;16.30;99.90
21895;DHT22;11112;51.270;7.224;2023-05-10T07:52:22;16.40;99.90
21895;DHT22;11112;51.270;7.224;2023-05-10T07:54:49;16.40;99.90
21895;DHT22;11112;51.270;7.224;2023-05-10T07:57:17;16.40;99.90
21895;DHT22;11112;51.270;7.224;2023-05-10T07:59:44;16.30;99.90
21895;DHT22;11112;51.270;7.224;2023-05-10T08:02:12;16.40;99.90
21895;DHT22;11112;51.270;7.224;2023-05-10T08:04:39;16.30;99.90
21895;DHT22;11112;51.270;7.224;2023-05-10T08:07:06;16.40;99.90
21895;DHT22;11112;51.270;7.224;2023-05-10T08:09:33;16.40;99.90
21895;DHT22;11112;51.270;7.224;2023-05-10T08:12:01;16.50;99.90
21895;DHT22;11112;51.270;7.224;2023-05-10T08:14:29;16.60;99.90
21895;DHT22;11112;51.270;7.224;2023-05-10T08:16:56;16.60;99.90
21895;DHT22;11112;51.270;7.224;2023-05-10T08:19:23;16.60;99.90
21895;DHT22;11112;51.270;7.224;2023-05-10T08:21:50;16.60;99.90
21895;DHT22;11112;51.270;7.224;2023-05-10T08:24:20;16.60;99.90
21895;DHT22;11112;51.270;7.224;2023-05-10T08:26:48;16.60;99.90
21895;DHT22;11112;51.270;7.224;2023-05-10T08:29:15;16.60;99.90
21895;DHT22;11112;51.270;7.224;2023-05-10T08:31:43;16.70;99.90
21895;DHT22;11112;51.270;7.224;2023-05-10T08:34:10;16.70;99.90
21895;DHT22;11112;51.270;7.224;2023-05-10T08:36:38;16.70;99.90
21895;DHT22;11112;51.270;7.224;2023-05-10T08:39:05;16.70;99.90
21895;DHT22;11112;51.270;7.224;2023-05-10T08:41:33;16.70;99.90
21895;DHT22;11112;51.270;7.224;2023-05-10T08:44:03;16.70;99.90
21895;DHT22;11112;51.270;7.224;2023-05-10T08:46:33;16.80;99.90
21895;DHT22;11112;51.270;7.224;2023-05-10T08:49:06;16.80;99.90
21895;DHT22;11112;51.270;7.224;2023-05-10T08:51:36;16.90;99.90
21895;DHT22;11112;51.270;7.224;2023-05-10T08:54:06;16.90;99.90
21895;DHT22;11112;51.270;7.224;2023-05-10T08:56:34;16.80;99.90
21895;DHT22;11112;51.270;7.224;2023-05-10T08:59:01;16.80;99.90
21895;DHT22;11112;51.270;7.224;2023-05-10T09:01:31;16.80;99.90
21895;DHT22;11112;51.270;7.224;2023-05-10T09:03:59;16.80;99.90
21895;DHT22;11112;51.270;7.224;2023-05-10T09:06:27;16.80;99.90
21895;DHT22;11112;51.270;7.224;2023-05-10T09:08:55;16.80;99.90
21895;DHT22;11112;51.270;7.224;2023-05-10T09:11:22;16.90;99.90
21895;DHT22;11112;51.270;7.224;2023-05-10T09:13:51;16.90;99.90
21895;DHT22;11112;51.270;7.224;2023-05-10T09:16:19;16.90;99.90
21895;DHT22;11112;51.270;7.224;2023-05-10T09:18:46;17.00;99.90
21895;DHT22;11112;51.270;7.224;2023-05-10T09:21:13;17.00;99.90
21895;DHT22;11112;51.270;7.224;2023-05-10T09:23:44;17.00;99.90
21895;DHT22;11112;51.270;7.224;2023-05-10T09:26:12;17.00;99.90
21895;DHT22;11112;51.270;7.224;2023-05-10T09:28:50;16.90;99.90
21895;DHT22;11112;51.270;7.224;2023-05-10T09:31:18;16.90;99.90
21895;DHT22;11112;51.270;7.224;2023-05-10T09:33:46;16.90;99.90
21895;DHT22;11112;51.270;7.224;2023-05-10T09:36:14;16.90;99.90
21895;DHT22;11112;51.270;7.224;2023-05-10T09:38:47;16.90;99.90
21895;DHT22;11112;51.270;7.224;2023-05-10T09:41:18;16.90;99.90
21895;DHT22;11112;51.270;7.224;2023-05-10T09:43:46;16.90;99.90
21895;DHT22;11112;51.270;7.224;2023-05-10T09:46:14;16.90;99.90
21895;DHT22;11112;51.270;7.224;2023-05-10T09:48:44;16.90;99.90
21895;DHT22;11112;51.270;7.224;2023-05-10T09:51:19;17.00;99.90
21895;DHT22;11112;51.270;7.224;2023-05-10T09:53:48;17.00;99.90
21895;DHT22;11112;51.270;7.224;2023-05-10T09:56:33;17.00;99.90
21895;DHT22;11112;51.270;7.224;2023-05-10T09:59:05;17.00;99.90
21895;DHT22;11112;51.270;7.224;2023-05-10T10:01:33;17.00;99.90
21895;DHT22;11112;51.270;7.224;2023-05-10T10:04:03;17.00;99.90
21895;DHT22;11112;51.270;7.224;2023-05-10T10:06:35;17.00;99.90
21895;DHT22;11112;51.270;7.224;2023-05-10T10:09:05;17.10;99.90
21895;DHT22;11112;51.270;7.224;2023-05-10T10:11:34;17.10;99.90
21895;DHT22;11112;51.270;7.224;2023-05-10T10:14:01;17.10;99.90
21895;DHT22;11112;51.270;7.224;2023-05-10T10:16:29;17.10;99.90
21895;DHT22;11112;51.270;7.224;2023-05-10T10:18:57;17.10;99.90
21895;DHT22;11112;51.270;7.224;2023-05-10T10:21:25;17.00;99.90
21895;DHT22;11112;51.270;7.224;2023-05-10T10:23:52;17.00;99.90
21895;DHT22;11112;51.270;7.224;2023-05-10T10:26:21;17.00;99.90
21895;DHT22;11112;51.270;7.224;2023-05-10T10:28:51;16.90;99.90
21895;DHT22;11112;51.270;7.224;2023-05-10T10:31:30;17.00;99.90
21895;DHT22;11112;51.270;7.224;2023-05-10T10:34:05;17.00;99.90
21895;DHT22;11112;51.270;7.224;2023-05-10T10:36:34;16.90;99.90
21895;DHT22;11112;51.270;7.224;2023-05-10T10:39:10;16.80;99.90
21895;DHT22;11112;51.270;7.224;2023-05-10T10:41:40;16.80;99.90
21895;DHT22;11112;51.270;7.224;2023-05-10T10:44:38;16.80;99.90
21895;DHT22;11112;51.270;7.224;2023-05-10T10:47:22;16.80;99.90
21895;DHT22;11112;51.270;7.224;2023-05-10T10:49:51;16.80;99.90
21895;DHT22;11112;51.270;7.224;2023-05-10T10:52:26;16.90;99.90
21895;DHT22;11112;51.270;7.224;2023-05-10T10:55:00;16.80;99.90
21895;DHT22;11112;51.270;7.224;2023-05-10T10:57:32;16.80;99.90
21895;DHT22;11112;51.270;7.224;2023-05-10T11:00:22;16.80;99.90
21895;DHT22;11112;51.270;7.224;2023-05-10T11:02:56;16.90;99.90
21895;DHT22;11112;51.270;7.224;2023-05-10T11:05:33;16.90;99.90
21895;DHT22;11112;51.270;7.224;2023-05-10T11:08:09;17.00;99.90
21895;DHT22;11112;51.270;7.224;2023-05-10T11:10:38;17.10;99.90
21895;DHT22;11112;51.270;7.224;2023-05-10T11:13:09;17.10;99.90
21895;DHT22;11112;51.270;7.224;2023-05-10T11:15:38;17.10;99.90
21895;DHT22;11112;51.270;7.224;2023-05-10T11:18:19;17.10;99.90
21895;DHT22;11112;51.270;7.224;2023-05-10T11:20:50;17.20;99.90
21895;DHT22;11112;51.270;7.224;2023-05-10T11:23:18;17.20;99.90
21895;DHT22;11112;51.270;7.224;2023-05-10T11:25:48;17.10;99.90
21895;DHT22;11112;51.270;7.224;2023-05-10T11:28:18;17.10;99.90
21895;DHT22;11112;51.270;7.224;2023-05-10T11:30:46;17.00;99.90
21895;DHT22;11112;51.270;7.224;2023-05-10T11:33:17;17.10;99.90
21895;DHT22;11112;51.270;7.224;2023-05-10T11:35:46;17.10;99.90
21895;DHT22;11112;51.270;7.224;2023-05-10T11:38:13;17.10;99.90
21895;DHT22;11112;51.270;7.224;2023-05-10T11:40:41;17.10;99.90
21895;DHT22;11112;51.270;7.224;2023-05-10T11:43:09;17.10;99.90
21895;DHT22;11112;51.270;7.224;2023-05-10T11:45:40;17.10;99.90
21895;DHT22;11112;51.270;7.224;2023-05-10T11:48:08;17.20;99.90
21895;DHT22;11112;51.270;7.224;2023-05-10T11:50:35;17.20;99.90
21895;DHT22;11112;51.270;7.224;2023-05-10T11:53:02;17.30;99.90
21895;DHT22;11112;51.270;7.224;2023-05-10T11:55:29;17.30;99.90
21895;DHT22;11112;51.270;7.224;2023-05-10T11:58:01;17.30;99.90
21895;DHT22;11112;51.270;7.224;2023-05-10T12:00:29;17.40;99.90
21895;DHT22;11112;51.270;7.224;2023-05-10T12:02:59;17.40;99.90
21895;DHT22;11112;51.270;7.224;2023-05-10T12:05:28;17.40;99.90
21895;DHT22;11112;51.270;7.224;2023-05-10T12:08:11;17.40;99.90
21895;DHT22;11112;51.270;7.224;2023-05-10T12:10:39;17.50;99.90
21895;DHT22;11112;51.270;7.224;2023-05-10T12:13:11;17.50;99.90
21895;DHT22;11112;51.270;7.224;2023-05-10T12:15:39;17.60;99.90
21895;DHT22;11112;51.270;7.224;2023-05-10T12:18:09;17.60;99.90
21895;DHT22;11112;51.270;7.224;2023-05-10T12:20:37;17.50;99.90
21895;DHT22;11112;51.270;7.224;2023-05-10T12:23:05;17.60;99.90
21895;DHT22;11112;51.270;7.224;2023-05-10T12:25:35;17.50;99.90
21895;DHT22;11112;51.270;7.224;2023-05-10T12:28:04;17.50;99.90
21895;DHT22;11112;51.270;7.224;2023-05-10T12:30:34;17.50;99.90
21895;DHT22;11112;51.270;7.224;2023-05-10T12:33:06;17.50;99.90
21895;DHT22;11112;51.270;7.224;2023-05-10T12:35:44;17.50;99.90
21895;DHT22;11112;51.270;7.224;2023-05-10T12:38:25;17.50;99.90
21895;DHT22;11112;51.270;7.224;2023-05-10T12:40:55;17.50;99.90
21895;DHT22;11112;51.270;7.224;2023-05-10T12:43:22;17.40;99.90
21895;DHT22;11112;51.270;7.224;2023-05-10T12:45:50;17.50;99.90
21895;DHT22;11112;51.270;7.224;2023-05-10T12:48:19;17.40;99.90
21895;DHT22;11112;51.270;7.224;2023-05-10T12:50:46;17.40;99.90
21895;DHT22;11112;51.270;7.224;2023-05-10T12:53:14;17.40;99.90
21895;DHT22;11112;51.270;7.224;2023-05-10T12:55:42;17.40;99.90
21895;DHT22;11112;51.270;7.224;2023-05-10T12:58:09;17.40;99.90
21895;DHT22;11112;51.270;7.224;2023-05-10T13:00:36;17.40;99.90
21895;DHT22;11112;51.270;7.224;2023-05-10T13:03:04;17.40;99.90
21895;DHT22;11112;51.270;7.224;2023-05-10T13:05:33;17.50;99.90
21895;DHT22;11112;51.270;7.224;2023-05-10T13:08:00;17.50;99.90
21895;DHT22;11112;51.270;7.224;2023-05-10T13:10:29;17.50;99.90
21895;DHT22;11112;51.270;7.224;2023-05-10T13:12:57;17.50;99.90
21895;DHT22;11112;51.270;7.224;2023-05-10T13:15:25;17.50;99.90
21895;DHT22;11112;51.270;7.224;2023-05-10T13:17:53;17.50;99.90
21895;DHT22;11112;51.270;7.224;2023-05-10T13:20:20;17.50;99.90
21895;DHT22;11112;51.270;7.224;2023-05-10T13:22:49;17.50;99.90
21895;DHT22;11112;51.270;7.224;2023-05-10T13:25:17;17.60;99.90
21895;DHT22;11112;51.270;7.224;2023-05-10T13:27:44;17.50;99.70
21895;DHT22;11112;51.270;7.224;2023-05-10T13:30:11;17.50;99.60
21895;DHT22;11112;51.270;7.224;2023-05-10T13:32:39;17.50;99.80
21895;DHT22;11112;51.270;7.224;2023-05-10T13:35:07;17.50;99.90
21895;DHT22;11112;51.270;7.224;2023-05-10T13:37:34;17.50;99.90
21895;DHT22;11112;51.270;7.224;2023-05-10T13:40:05;17.60;99.90
21895;DHT22;11112;51.270;7.224;2023-05-10T13:42:33;17.60;99.80
21895;DHT22;11112;51.270;7.224;2023-05-10T13:45:00;17.60;99.90
21895;DHT22;11112;51.270;7.224;2023-05-10T13:47:27;17.60;99.80
21895;DHT22;11112;51.270;7.224;2023-05-10T13:49:54;17.60;99.90
21895;DHT22;11112;51.270;7.224;2023-05-10T13:52:22;17.60;99.90
21895;DHT22;11112;51.270;7.224;2023-05-10T13:54:49;17.60;99.90
21895;DHT22;11112;51.270;7.224;2023-05-10T13:57:21;17.50;99.90
21895;DHT22;11112;51.270;7.224;2023-05-10T13:59:49;17.50;99.90
21895;DHT22;11112;51.270;7.224;2023-05-10T14:02:17;17.50;99.90
21895;DHT22;11112;51.270;7.224;2023-05-10T14:04:44;17.60;99.90
21895;DHT22;11112;51.270;7.224;2023-05-10T14:07:12;17.60;99.90
21895;DHT22;11112;51.270;7.224;2023-05-10T14:09:39;17.60;99.90
21895;DHT22;11112;51.270;7.224;2023-05-10T14:12:06;17.50;99.90
21895;DHT22;11112;51.270;7.224;2023-05-10T14:14:34;17.50;99.90
21895;DHT22;11112;51.270;7.224;2023-05-10T14:17:02;17.50;99.90
21895;DHT22;11112;51.270;7.224;2023-05-10T14:19:29;17.50;99.90
21895;DHT22;11112;51.270;7.224;2023-05-10T14:21:57;17.50;99.90
21895;DHT22;11112;51.270;7.224;2023-05-10T14:24:25;17.50;99.90
21895;DHT22;11112;51.270;7.224;2023-05-10T14:26:52;17.50;99.90
21895;DHT22;11112;51.270;7.224;2023-05-10T14:29:19;17.50;99.90
21895;DHT22;11112;51.270;7.224;2023-05-10T14:31:48;17.50;99.90
21895;DHT22;11112;51.270;7.224;2023-05-10T14:34:15;17.60;99.90
21895;DHT22;11112;51.270;7.224;2023-05-10T14:36:42;17.60;99.90
21895;DHT22;11112;51.270;7.224;2023-05-10T14:39:09;17.60;99.90
21895;DHT22;11112;51.270;7.224;2023-05-10T14:41:38;17.60;99.90
21895;DHT22;11112;51.270;7.224;2023-05-10T14:44:07;17.60;99.90
21895;DHT22;11112;51.270;7.224;2023-05-10T14:46:35;17.60;99.90
21895;DHT22;11112;51.270;7.224;2023-05-10T14:49:04;17.60;99.90
21895;DHT22;11112;51.270;7.224;2023-05-10T14:51:31;17.60;99.90
21895;DHT22;11112;51.270;7.224;2023-05-10T14:53:58;17.60;99.90
21895;DHT22;11112;51.270;7.224;2023-05-10T14:56:26;17.60;99.90
21895;DHT22;11112;51.270;7.224;2023-05-10T14:58:53;17.60;99.90
21895;DHT22;11112;51.270;7.224;2023-05-10T15:01:20;17.60;99.90
21895;DHT22;11112;51.270;7.224;2023-05-10T15:03:48;17.60;99.90
21895;DHT22;11112;51.270;7.224;2023-05-10T15:06:16;17.70;99.90
21895;DHT22;11112;51.270;7.224;2023-05-10T15:08:43;17.70;99.90
21895;DHT22;11112;51.270;7.224;2023-05-10T15:11:10;17.60;99.90
21895;DHT22;11112;51.270;7.224;2023-05-10T15:13:38;17.60;99.90
21895;DHT22;11112;51.270;7.224;2023-05-10T15:16:05;17.60;99.90
21895;DHT22;11112;51.270;7.224;2023-05-10T15:18:32;17.70;99.90
21895;DHT22;11112;51.270;7.224;2023-05-10T15:20:59;17.70;99.90
21895;DHT22;11112;51.270;7.224;2023-05-10T15:23:28;17.70;99.90
21895;DHT22;11112;51.270;7.224;2023-05-10T15:25:55;17.70;99.90
21895;DHT22;11112;51.270;7.224;2023-05-10T15:28:22;17.80;99.90
21895;DHT22;11112;51.270;7.224;2023-05-10T15:30:50;17.80;99.80
21895;DHT22;11112;51.270;7.224;2023-05-10T15:33:17;17.80;99.90
21895;DHT22;11112;51.270;7.224;2023-05-10T15:35:44;17.80;99.90
21895;DHT22;11112;51.270;7.224;2023-05-10T15:38:11;17.80;99.90
21895;DHT22;11112;51.270;7.224;2023-05-10T15:40:39;17.80;99.90
21895;DHT22;11112;51.270;7.224;2023-05-10T15:43:06;17.80;99.90
21895;DHT22;11112;51.270;7.224;2023-05-10T15:45:34;17.80;99.70
21895;DHT22;11112;51.270;7.224;2023-05-10T15:48:01;17.80;99.60